Time;durP1;ratioP1;P1;durP2;ratioP2;P2;SDS_P1;SDS_P2;PMS_P1;PMS_P2;Temp;Humidity;BMP_temperature;BMP_pressure;BME280_temperature;BME280_humidity;BME280_pressure;Samples;Min_cycle;Max_cycle;Signal;HPM_P1;HPM_P2
2022/07/25 00:02:23;;;;;;;11.63;10.43;;;22.10;78.70;;;;;;4997160;28;20196;-57
2022/07/25 00:04:49;;;;;;;12.87;11.40;;;22.10;78.90;;;;;;4997827;28;20196;-57
2022/07/25 00:07:15;;;;;;;13.27;12.03;;;22.10;78.90;;;;;;4984712;28;20196;-57
2022/07/25 00:09:40;;;;;;;14.03;12.33;;;22.00;78.70;;;;;;4988222;28;20303;-57
2022/07/25 00:12:06;;;;;;;16.13;13.00;;;22.00;78.70;;;;;;4981266;28;20228;-57
2022/07/25 00:14:32;;;;;;;12.63;11.50;;;22.00;79.00;;;;;;4997117;28;20275;-57
2022/07/25 00:16:58;;;;;;;12.83;11.10;;;22.00;79.00;;;;;;4980765;28;20193;-57
2022/07/25 00:19:23;;;;;;;13.60;11.43;;;21.90;79.00;;;;;;5009884;28;20223;-57
2022/07/25 00:21:50;;;;;;;14.47;11.30;;;21.90;79.10;;;;;;4964580;28;20283;-56
2022/07/25 00:24:15;;;;;;;13.27;11.23;;;21.80;79.30;;;;;;4982388;28;20259;-57
2022/07/25 00:26:41;;;;;;;12.63;11.33;;;21.80;79.40;;;;;;4998160;28;20208;-57
2022/07/25 00:29:07;;;;;;;13.90;11.93;;;21.80;79.50;;;;;;4996505;28;20218;-57
2022/07/25 00:31:32;;;;;;;12.07;10.87;;;21.80;79.50;;;;;;4978545;28;20193;-57
2022/07/25 00:33:58;;;;;;;12.93;11.60;;;21.80;79.60;;;;;;4964276;28;20188;-57
2022/07/25 00:36:23;;;;;;;12.17;10.97;;;21.70;79.70;;;;;;4980732;28;20271;-57
2022/07/25 00:38:49;;;;;;;11.63;10.27;;;21.70;79.80;;;;;;4964035;28;20189;-57
2022/07/25 00:41:15;;;;;;;12.57;11.27;;;21.70;79.80;;;;;;4968553;28;20192;-57
2022/07/25 00:43:45;;;;;;;13.00;11.80;;;21.70;79.80;;;;;;5013160;28;20188;-57
2022/07/25 00:46:15;;;;;;;14.00;11.63;;;21.70;79.80;;;;;;4998268;28;20184;-57
2022/07/25 00:48:41;;;;;;;13.07;11.47;;;21.70;79.90;;;;;;4986594;28;20197;-57
2022/07/25 00:51:09;;;;;;;12.30;11.03;;;21.70;80.10;;;;;;5009601;28;20301;-57
2022/07/25 00:53:37;;;;;;;15.10;11.47;;;21.70;80.10;;;;;;4976654;28;20229;-57
2022/07/25 00:56:04;;;;;;;13.73;12.33;;;21.60;80.10;;;;;;5011754;28;20184;-57
2022/07/25 00:58:30;;;;;;;13.43;12.13;;;21.60;80.20;;;;;;4996496;28;20262;-57
2022/07/25 01:00:56;;;;;;;13.37;12.00;;;21.50;80.30;;;;;;4980125;28;20200;-57
2022/07/25 01:03:22;;;;;;;13.03;11.63;;;21.50;80.30;;;;;;4996190;28;20203;-57
2022/07/25 01:05:49;;;;;;;13.10;10.83;;;21.40;80.40;;;;;;4995951;28;20193;-57
2022/07/25 01:08:17;;;;;;;11.50;10.40;;;21.50;80.40;;;;;;4964117;28;20188;-57
2022/07/25 01:10:44;;;;;;;12.93;11.27;;;21.40;80.30;;;;;;4995932;28;20296;-57
2022/07/25 01:13:10;;;;;;;13.43;12.10;;;21.40;80.20;;;;;;5001479;28;20244;-57
2022/07/25 01:15:35;;;;;;;14.07;11.30;;;21.30;80.30;;;;;;5008418;28;20188;-57
2022/07/25 01:18:01;;;;;;;11.47;10.37;;;21.30;80.50;;;;;;4980600;28;20195;-57
2022/07/25 01:20:29;;;;;;;13.07;11.87;;;21.30;80.60;;;;;;4963745;28;20204;-57
2022/07/25 01:22:55;;;;;;;11.93;10.83;;;21.30;80.70;;;;;;4996641;28;20238;-57
2022/07/25 01:25:21;;;;;;;13.20;10.83;;;21.30;80.50;;;;;;4992912;28;20201;-57
2022/07/25 01:27:48;;;;;;;11.83;10.70;;;21.30;80.60;;;;;;5004362;28;20204;-57
2022/07/25 01:30:15;;;;;;;13.70;11.37;;;21.30;80.40;;;;;;4995240;28;20295;-57
2022/07/25 01:32:42;;;;;;;12.17;11.00;;;21.30;80.40;;;;;;5000615;28;20191;-57
2022/07/25 01:35:09;;;;;;;13.23;10.87;;;21.20;80.50;;;;;;4995749;28;20180;-57
2022/07/25 01:37:35;;;;;;;14.10;11.77;;;21.20;80.70;;;;;;4994924;28;20299;-57
2022/07/25 01:40:01;;;;;;;11.97;10.87;;;21.20;80.70;;;;;;4985677;28;20279;-57
2022/07/25 01:42:27;;;;;;;12.53;11.43;;;21.20;80.50;;;;;;4993938;28;20283;-57
2022/07/25 01:44:53;;;;;;;12.97;11.87;;;21.20;80.40;;;;;;4979226;28;20286;-57
2022/07/25 01:47:18;;;;;;;12.90;11.57;;;21.10;80.60;;;;;;4978033;28;20188;-57
2022/07/25 01:49:44;;;;;;;14.40;11.60;;;21.10;80.80;;;;;;4995682;28;20270;-57
2022/07/25 01:52:11;;;;;;;12.97;10.93;;;21.00;80.90;;;;;;4995482;28;20184;-57
2022/07/25 01:54:37;;;;;;;14.97;10.93;;;21.00;80.90;;;;;;5007529;28;20199;-57
2022/07/25 01:57:04;;;;;;;12.73;11.37;;;21.00;80.90;;;;;;4982492;28;20216;-57
2022/07/25 01:59:29;;;;;;;12.77;11.47;;;20.90;81.00;;;;;;4978588;28;20199;-57
2022/07/25 02:01:55;;;;;;;12.87;11.57;;;20.90;81.00;;;;;;4995622;28;20274;-57
2022/07/25 02:04:21;;;;;;;15.03;12.33;;;20.90;81.00;;;;;;4994672;28;20216;-57
2022/07/25 02:06:46;;;;;;;11.80;10.80;;;20.80;80.90;;;;;;4994881;28;20200;-57
2022/07/25 02:09:12;;;;;;;12.90;11.60;;;20.90;81.00;;;;;;5008118;28;20216;-57
2022/07/25 02:11:38;;;;;;;11.87;10.57;;;20.80;81.00;;;;;;4978858;28;20250;-56
2022/07/25 02:14:04;;;;;;;14.47;12.10;;;20.80;81.00;;;;;;4978283;28;20247;-56
2022/07/25 02:16:29;;;;;;;13.00;11.80;;;20.80;81.40;;;;;;4981669;28;20197;-56
2022/07/25 02:18:55;;;;;;;13.07;11.73;;;20.80;81.10;;;;;;4973395;28;20189;-57
2022/07/25 02:21:21;;;;;;;13.33;12.03;;;20.80;81.20;;;;;;4992300;28;20188;-57
2022/07/25 02:23:47;;;;;;;13.90;11.37;;;20.80;81.30;;;;;;5008694;28;20196;-57
2022/07/25 02:26:13;;;;;;;12.80;10.63;;;20.80;81.30;;;;;;4975724;28;20284;-57
2022/07/25 02:28:40;;;;;;;15.73;11.67;;;20.70;81.30;;;;;;5009073;28;20195;-56
2022/07/25 02:31:06;;;;;;;12.53;11.23;;;20.70;81.40;;;;;;4991604;28;20217;-56
2022/07/25 02:33:31;;;;;;;12.00;10.87;;;20.70;81.50;;;;;;5006736;28;20199;-57
2022/07/25 02:35:57;;;;;;;13.53;11.13;;;20.60;81.50;;;;;;4958437;28;20235;-57
2022/07/25 02:38:22;;;;;;;13.07;11.13;;;20.60;81.50;;;;;;4991348;28;20193;-57
2022/07/25 02:40:50;;;;;;;13.10;11.90;;;20.60;81.60;;;;;;5000521;28;20279;-57
2022/07/25 02:43:17;;;;;;;12.40;11.10;;;20.60;81.50;;;;;;4978331;28;20196;-57
2022/07/25 02:45:43;;;;;;;12.83;11.70;;;20.60;81.50;;;;;;4982106;28;20215;-57
2022/07/25 02:48:09;;;;;;;11.73;10.63;;;20.50;81.40;;;;;;4998441;28;20220;-57
2022/07/25 02:50:35;;;;;;;11.93;10.47;;;20.50;81.50;;;;;;4994062;28;20204;-56
2022/07/25 02:53:02;;;;;;;12.00;10.90;;;20.50;81.50;;;;;;4977871;28;20208;-57
2022/07/25 02:55:27;;;;;;;13.27;11.87;;;20.50;81.50;;;;;;4979444;28;20188;-56
2022/07/25 02:57:53;;;;;;;13.23;11.93;;;20.50;81.50;;;;;;4977683;28;20191;-56
2022/07/25 03:00:19;;;;;;;13.80;11.60;;;20.50;81.50;;;;;;4961607;28;20192;-57
2022/07/25 03:02:45;;;;;;;14.07;11.40;;;20.40;81.50;;;;;;4979786;28;20208;-57
2022/07/25 03:05:13;;;;;;;13.70;11.07;;;20.40;81.60;;;;;;4977928;28;20188;-57
2022/07/25 03:07:39;;;;;;;12.23;10.97;;;20.40;81.70;;;;;;4976224;28;20216;-57
2022/07/25 03:10:06;;;;;;;12.17;10.77;;;20.40;81.60;;;;;;4987663;28;20216;-56
2022/07/25 03:12:32;;;;;;;12.23;11.03;;;20.50;81.40;;;;;;4993805;28;20232;-56
2022/07/25 03:14:58;;;;;;;11.93;10.60;;;20.40;81.60;;;;;;4995294;28;20188;-56
2022/07/25 03:17:24;;;;;;;12.23;11.07;;;20.40;81.40;;;;;;4995326;28;20204;-56
2022/07/25 03:19:50;;;;;;;13.37;12.03;;;20.40;81.50;;;;;;4978479;28;20192;-56
2022/07/25 03:22:16;;;;;;;12.40;11.17;;;20.40;81.60;;;;;;4993026;28;20196;-57
2022/07/25 03:24:42;;;;;;;14.10;10.40;;;20.40;81.70;;;;;;4993458;28;20188;-57
2022/07/25 03:27:08;;;;;;;12.13;10.93;;;20.30;81.90;;;;;;4978843;28;20239;-57
2022/07/25 03:29:34;;;;;;;12.20;11.03;;;20.30;81.90;;;;;;4977375;28;20226;-57
2022/07/25 03:32:00;;;;;;;12.33;10.63;;;20.30;81.90;;;;;;4977722;28;20220;-57
2022/07/25 03:34:26;;;;;;;13.70;12.30;;;20.30;81.90;;;;;;4960580;28;20196;-57
2022/07/25 03:36:51;;;;;;;12.97;11.83;;;20.30;81.90;;;;;;4993706;28;20195;-56
2022/07/25 03:39:17;;;;;;;11.77;10.67;;;20.20;82.00;;;;;;4977599;28;20192;-56
2022/07/25 03:41:44;;;;;;;11.60;10.60;;;20.30;82.10;;;;;;4961627;28;20246;-57
2022/07/25 03:44:09;;;;;;;12.93;11.03;;;20.30;82.20;;;;;;4977891;28;20243;-57
2022/07/25 03:46:35;;;;;;;12.60;11.40;;;20.30;82.20;;;;;;4961241;28;20264;-57
2022/07/25 03:49:01;;;;;;;12.47;11.17;;;20.20;82.10;;;;;;4993794;28;20193;-57
2022/07/25 03:51:27;;;;;;;12.60;11.03;;;20.20;82.10;;;;;;4961163;28;20203;-57
2022/07/25 03:54:01;;;;;;;11.70;10.60;;;20.20;82.10;;;;;;4961412;28;20192;-57
2022/07/25 03:56:28;;;;;;;12.23;11.13;;;20.20;82.20;;;;;;4995173;28;20180;-57
2022/07/25 03:58:54;;;;;;;12.97;11.70;;;20.20;82.20;;;;;;4985375;28;20196;-56
2022/07/25 04:01:20;;;;;;;13.53;10.73;;;20.20;82.30;;;;;;5006342;28;20260;-57
2022/07/25 04:03:45;;;;;;;12.27;11.17;;;20.20;82.20;;;;;;4988992;28;20188;-57
2022/07/25 04:06:11;;;;;;;12.60;11.30;;;20.20;82.30;;;;;;5007433;28;20193;-57
2022/07/25 04:08:37;;;;;;;12.23;10.63;;;20.20;82.40;;;;;;5009277;28;20189;-57
2022/07/25 04:11:03;;;;;;;13.00;11.73;;;20.20;82.50;;;;;;4993591;28;20309;-57
2022/07/25 04:13:28;;;;;;;13.33;11.93;;;20.20;82.40;;;;;;4987809;28;20275;-57
2022/07/25 04:15:54;;;;;;;12.37;11.23;;;20.20;82.40;;;;;;4985197;28;20209;-57
2022/07/25 04:18:20;;;;;;;13.27;11.83;;;20.30;82.40;;;;;;4997524;28;20200;-57
2022/07/25 04:20:46;;;;;;;13.20;12.00;;;20.20;82.40;;;;;;4992769;28;20201;-57
2022/07/25 04:23:12;;;;;;;13.67;12.23;;;20.20;82.40;;;;;;4973880;28;20212;-57
2022/07/25 04:25:38;;;;;;;13.03;11.83;;;20.20;82.40;;;;;;4991134;28;20192;-57
2022/07/25 04:28:03;;;;;;;13.57;11.97;;;20.20;82.40;;;;;;4979582;28;20196;-57
2022/07/25 04:30:29;;;;;;;13.00;11.70;;;20.20;82.30;;;;;;4985160;28;20212;-57
2022/07/25 04:32:55;;;;;;;14.70;12.57;;;20.20;82.40;;;;;;4988630;28;20270;-56
2022/07/25 04:35:21;;;;;;;13.53;12.20;;;20.20;82.50;;;;;;4967695;28;20201;-56
2022/07/25 04:37:47;;;;;;;13.87;11.77;;;20.20;82.60;;;;;;5001294;28;20274;-56
2022/07/25 04:40:12;;;;;;;12.93;11.73;;;20.20;82.70;;;;;;4994909;28;20273;-56
2022/07/25 04:42:38;;;;;;;12.83;11.63;;;20.20;82.70;;;;;;4959542;28;20216;-57
2022/07/25 04:45:04;;;;;;;13.87;11.77;;;20.20;82.70;;;;;;4993003;28;20197;-57
2022/07/25 04:47:30;;;;;;;13.87;12.57;;;20.20;82.90;;;;;;5001383;28;20284;-57
2022/07/25 04:49:55;;;;;;;13.43;12.03;;;20.30;82.80;;;;;;4993891;28;20221;-56
2022/07/25 04:52:21;;;;;;;13.17;11.97;;;20.30;82.80;;;;;;4995956;28;20203;-56
2022/07/25 04:54:47;;;;;;;12.70;11.13;;;20.30;83.00;;;;;;4983516;28;20211;-57
2022/07/25 04:57:12;;;;;;;13.03;11.83;;;20.30;82.90;;;;;;4960866;28;20204;-57
2022/07/25 04:59:38;;;;;;;13.40;11.63;;;20.30;82.90;;;;;;4984819;28;20189;-57
2022/07/25 05:02:04;;;;;;;13.03;11.77;;;20.30;83.00;;;;;;4996006;28;20215;-57
2022/07/25 05:04:29;;;;;;;12.77;11.07;;;20.30;83.00;;;;;;4980284;28;20283;-57
2022/07/25 05:06:55;;;;;;;12.27;11.17;;;20.30;83.00;;;;;;4992946;28;20189;-57
2022/07/25 05:09:21;;;;;;;14.90;12.07;;;20.30;83.10;;;;;;4990610;28;20255;-57
2022/07/25 05:11:46;;;;;;;12.60;11.40;;;20.30;83.10;;;;;;5003805;28;20243;-57
2022/07/25 05:14:12;;;;;;;12.17;11.07;;;20.40;82.90;;;;;;4996158;28;20224;-57
2022/07/25 05:16:37;;;;;;;13.47;12.17;;;20.40;82.60;;;;;;4995825;28;20199;-57
2022/07/25 05:19:03;;;;;;;13.60;12.17;;;20.50;82.70;;;;;;4979964;28;20196;-57
2022/07/25 05:21:29;;;;;;;13.23;11.90;;;20.50;82.80;;;;;;4961920;28;20196;-57
2022/07/25 05:23:55;;;;;;;13.37;12.00;;;20.50;83.00;;;;;;4989167;28;20189;-57
2022/07/25 05:26:20;;;;;;;12.03;10.93;;;20.50;83.00;;;;;;4991612;28;20189;-57
2022/07/25 05:28:46;;;;;;;12.40;11.20;;;20.60;83.00;;;;;;4989532;28;20188;-57
2022/07/25 05:31:12;;;;;;;13.40;12.00;;;20.60;83.20;;;;;;4988749;28;20216;-57
2022/07/25 05:33:37;;;;;;;13.50;12.13;;;20.60;83.10;;;;;;4979175;28;20188;-57
2022/07/25 05:36:04;;;;;;;11.97;10.87;;;20.70;82.90;;;;;;4979253;28;20299;-57
2022/07/25 05:38:30;;;;;;;12.90;11.70;;;20.70;82.90;;;;;;4979393;28;20192;-57
2022/07/25 05:40:56;;;;;;;12.80;11.60;;;20.70;83.00;;;;;;4980118;28;20200;-57
2022/07/25 05:43:21;;;;;;;13.70;12.40;;;20.70;82.90;;;;;;4995547;28;20192;-58
2022/07/25 05:45:47;;;;;;;14.33;12.83;;;20.80;82.80;;;;;;4995199;28;20208;-57
2022/07/25 05:48:14;;;;;;;13.47;11.80;;;20.80;82.80;;;;;;4995191;28;20288;-57
2022/07/25 05:50:40;;;;;;;15.23;12.67;;;20.80;82.80;;;;;;4994996;28;20247;-57
2022/07/25 05:53:06;;;;;;;13.33;11.50;;;20.80;82.80;;;;;;4995069;28;20552;-57
2022/07/25 05:55:31;;;;;;;11.80;10.67;;;20.80;82.90;;;;;;4990126;28;20275;-57
2022/07/25 05:57:57;;;;;;;12.80;11.30;;;20.90;82.80;;;;;;5003904;28;20184;-57
2022/07/25 06:00:24;;;;;;;14.73;12.37;;;20.80;82.80;;;;;;5003181;28;20201;-57
2022/07/25 06:02:49;;;;;;;13.67;12.20;;;20.80;82.90;;;;;;4993742;28;20200;-57
2022/07/25 06:05:15;;;;;;;13.20;11.83;;;20.80;82.90;;;;;;4979349;28;20211;-57
2022/07/25 06:07:41;;;;;;;14.00;12.63;;;20.80;83.00;;;;;;4990969;28;20198;-57
2022/07/25 06:10:07;;;;;;;12.90;11.67;;;20.80;83.10;;;;;;4995360;28;20243;-57
2022/07/25 06:12:33;;;;;;;13.97;11.90;;;20.90;83.10;;;;;;4992423;28;20236;-57
2022/07/25 06:14:59;;;;;;;13.07;11.87;;;20.90;83.10;;;;;;4987833;28;20204;-57
2022/07/25 06:17:25;;;;;;;14.37;12.97;;;20.90;83.10;;;;;;5009011;28;20217;-57
2022/07/25 06:19:51;;;;;;;16.63;13.10;;;20.90;83.00;;;;;;4992078;28;20228;-59
2022/07/25 06:22:18;;;;;;;14.27;11.37;;;20.90;83.00;;;;;;5001176;28;20227;-57
2022/07/25 06:24:44;;;;;;;14.03;12.57;;;20.90;82.90;;;;;;4994243;28;20200;-58
2022/07/25 06:27:10;;;;;;;13.53;12.13;;;21.00;83.10;;;;;;4994616;28;20197;-58
2022/07/25 06:29:37;;;;;;;13.30;12.10;;;21.00;83.10;;;;;;4978427;28;20235;-58
2022/07/25 06:32:03;;;;;;;12.83;11.73;;;21.10;83.10;;;;;;4962826;28;20212;-58
2022/07/25 06:34:29;;;;;;;12.83;11.63;;;21.10;82.90;;;;;;4994925;28;20203;-58
2022/07/25 06:36:56;;;;;;;13.00;11.70;;;21.10;82.60;;;;;;4994552;28;20192;-57
2022/07/25 06:39:22;;;;;;;13.27;11.93;;;21.20;82.00;;;;;;4994149;28;20200;-57
2022/07/25 06:41:48;;;;;;;13.40;12.13;;;21.20;82.10;;;;;;4978301;28;20204;-57
2022/07/25 06:44:14;;;;;;;13.77;12.37;;;21.20;82.10;;;;;;4993744;28;20275;-58
2022/07/25 06:46:40;;;;;;;12.90;11.60;;;21.20;81.70;;;;;;4996442;28;20198;-58
2022/07/25 06:49:06;;;;;;;13.43;12.03;;;21.30;81.20;;;;;;4977539;28;20200;-58
2022/07/25 06:51:31;;;;;;;12.97;11.67;;;21.30;81.20;;;;;;4994653;28;20192;-57
2022/07/25 06:53:57;;;;;;;13.30;12.00;;;21.30;81.40;;;;;;4977681;28;20266;-57
2022/07/25 06:56:23;;;;;;;13.10;11.90;;;21.30;81.10;;;;;;4993771;28;20218;-58
2022/07/25 06:58:49;;;;;;;13.13;11.83;;;21.30;80.90;;;;;;4976754;28;20208;-58
2022/07/25 07:01:15;;;;;;;14.43;12.93;;;21.40;80.70;;;;;;4981083;28;20204;-57
2022/07/25 07:03:41;;;;;;;13.03;10.93;;;21.40;80.70;;;;;;4989976;28;20204;-57
2022/07/25 07:06:10;;;;;;;12.53;11.33;;;21.50;80.70;;;;;;4993969;28;20207;-57
2022/07/25 07:08:37;;;;;;;12.67;11.47;;;21.50;80.60;;;;;;4994286;28;20199;-57
2022/07/25 07:11:03;;;;;;;13.40;12.13;;;21.50;80.70;;;;;;5000632;28;20304;-57
2022/07/25 07:13:29;;;;;;;15.73;11.70;;;21.60;80.80;;;;;;4974584;28;20244;-56
2022/07/25 07:15:54;;;;;;;12.83;11.60;;;21.60;80.90;;;;;;4964599;28;20201;-56
2022/07/25 07:18:20;;;;;;;12.73;11.43;;;21.70;81.10;;;;;;4961984;28;20199;-57
2022/07/25 07:20:46;;;;;;;12.80;11.40;;;21.70;81.30;;;;;;4977576;28;20279;-57
2022/07/25 07:23:12;;;;;;;12.10;10.90;;;21.80;80.90;;;;;;4993794;28;20212;-56
2022/07/25 07:25:38;;;;;;;11.07;9.93;;;21.80;80.30;;;;;;4993869;28;20278;-57
2022/07/25 07:28:04;;;;;;;13.17;11.87;;;21.80;80.50;;;;;;4993878;28;20219;-57
2022/07/25 07:30:30;;;;;;;12.47;11.03;;;21.90;79.90;;;;;;4976275;28;20218;-57
2022/07/25 07:32:56;;;;;;;11.30;10.30;;;21.90;79.60;;;;;;4991907;28;20196;-57
2022/07/25 07:35:24;;;;;;;11.17;10.17;;;22.00;78.40;;;;;;4990118;28;20192;-57
2022/07/25 07:37:51;;;;;;;12.57;10.63;;;22.10;75.90;;;;;;4960390;28;20189;-57
2022/07/25 07:40:17;;;;;;;11.57;10.43;;;22.20;75.70;;;;;;4975198;28;20200;-57
2022/07/25 07:42:47;;;;;;;11.53;10.40;;;22.20;76.80;;;;;;4991435;28;20191;-57
2022/07/25 07:45:15;;;;;;;11.23;10.13;;;22.30;76.40;;;;;;4991619;28;20203;-57
2022/07/25 07:47:41;;;;;;;11.60;10.60;;;22.30;76.70;;;;;;5008405;28;20283;-57
2022/07/25 07:50:08;;;;;;;10.67;9.57;;;22.40;75.40;;;;;;4984193;28;20287;-57
2022/07/25 07:52:34;;;;;;;10.63;9.73;;;22.50;75.30;;;;;;4972016;28;20283;-57
2022/07/25 07:57:44;;;;;;;10.60;9.27;;;22.60;75.60;;;;;;4980088;28;20207;-57
2022/07/25 08:00:10;;;;;;;10.77;9.67;;;22.70;73.50;;;;;;4975002;28;20298;-57
2022/07/25 08:02:51;;;;;;;10.63;9.70;;;22.90;73.60;;;;;;4966033;28;20228;-57
2022/07/25 08:05:26;;;;;;;11.13;10.10;;;22.90;73.20;;;;;;4988676;28;20196;-57
2022/07/25 08:07:53;;;;;;;11.83;10.70;;;22.90;74.10;;;;;;5011057;28;20192;-57
2022/07/25 08:10:27;;;;;;;10.27;9.37;;;22.90;74.50;;;;;;4991343;28;20228;-57
2022/07/25 08:12:53;;;;;;;10.73;9.73;;;22.90;74.70;;;;;;4990417;28;20288;-57
2022/07/25 08:15:20;;;;;;;11.17;10.17;;;22.90;75.70;;;;;;4987879;28;20271;-57
2022/07/25 08:17:46;;;;;;;10.67;9.77;;;23.00;75.90;;;;;;5007549;28;20339;-57
2022/07/25 08:20:13;;;;;;;11.73;10.63;;;23.00;75.80;;;;;;4991852;28;20279;-57
2022/07/25 08:22:40;;;;;;;11.17;10.07;;;23.10;76.00;;;;;;4996930;28;20232;-57
2022/07/25 08:25:13;;;;;;;12.53;11.23;;;23.00;76.20;;;;;;4979875;28;20192;-57
2022/07/25 08:27:39;;;;;;;12.10;10.93;;;23.10;75.40;;;;;;4994506;28;20207;-57
2022/07/25 08:30:06;;;;;;;11.70;10.50;;;23.20;75.30;;;;;;4979534;28;20216;-57
2022/07/25 08:32:32;;;;;;;11.13;10.17;;;23.20;73.80;;;;;;4979425;28;20223;-57
2022/07/25 08:35:00;;;;;;;11.00;10.00;;;23.30;73.80;;;;;;4995124;28;20184;-56
2022/07/25 08:37:26;;;;;;;11.47;10.37;;;23.30;74.20;;;;;;4993464;28;20327;-57
2022/07/25 08:39:52;;;;;;;11.10;10.20;;;23.30;74.70;;;;;;4962663;28;20275;-57
2022/07/25 08:42:19;;;;;;;11.50;10.43;;;23.40;75.00;;;;;;4962542;28;20201;-57
2022/07/25 08:44:55;;;;;;;11.73;10.67;;;23.40;74.50;;;;;;4994585;28;20192;-57
2022/07/25 08:47:22;;;;;;;11.17;10.17;;;23.50;74.70;;;;;;4994404;28;20196;-57
2022/07/25 08:49:48;;;;;;;11.80;10.63;;;23.50;73.30;;;;;;4976039;28;20299;-57
2022/07/25 08:52:14;;;;;;;10.60;9.33;;;23.60;73.70;;;;;;5009742;28;20188;-57
2022/07/25 08:54:40;;;;;;;10.53;9.43;;;23.70;74.20;;;;;;4994010;28;20199;-57
2022/07/25 08:57:06;;;;;;;11.00;9.97;;;23.70;73.40;;;;;;5010668;28;20271;-57
2022/07/25 08:59:32;;;;;;;12.20;10.57;;;23.80;73.40;;;;;;5009406;28;20276;-57
2022/07/25 09:02:01;;;;;;;10.43;9.50;;;23.80;73.70;;;;;;4994489;28;20196;-57
2022/07/25 09:04:28;;;;;;;11.23;10.13;;;23.80;74.40;;;;;;4994934;28;20196;-57
2022/07/25 09:06:53;;;;;;;11.17;10.20;;;23.90;74.20;;;;;;4975871;28;20224;-57
2022/07/25 09:09:28;;;;;;;11.20;10.10;;;24.00;73.40;;;;;;4989158;28;20231;-57
2022/07/25 09:11:54;;;;;;;10.63;9.63;;;24.00;69.60;;;;;;4994023;28;20192;-57
2022/07/25 09:14:20;;;;;;;10.90;9.90;;;24.10;71.30;;;;;;4993962;28;20180;-57
2022/07/25 09:16:45;;;;;;;11.20;10.10;;;24.10;72.00;;;;;;4978197;28;20280;-57
2022/07/25 09:19:13;;;;;;;9.70;8.63;;;24.20;71.70;;;;;;4962155;28;20185;-57
2022/07/25 09:21:41;;;;;;;10.80;9.77;;;24.30;70.80;;;;;;4993505;28;20199;-57
2022/07/25 09:24:15;;;;;;;10.97;9.97;;;24.50;68.90;;;;;;4992949;28;20276;-57
2022/07/25 09:26:45;;;;;;;10.63;9.63;;;24.80;65.50;;;;;;5009691;28;20175;-57
2022/07/25 09:29:20;;;;;;;10.87;9.83;;;24.80;66.60;;;;;;4993723;28;20185;-57
2022/07/25 09:31:46;;;;;;;11.37;10.00;;;24.80;66.80;;;;;;4993500;28;20180;-57
2022/07/25 09:34:11;;;;;;;10.17;9.23;;;24.90;66.70;;;;;;4976213;28;20195;-57
2022/07/25 09:36:49;;;;;;;11.27;10.10;;;25.00;68.10;;;;;;4991922;28;20327;-57
2022/07/25 09:39:15;;;;;;;10.63;9.67;;;25.00;67.40;;;;;;4993386;28;20196;-57
2022/07/25 09:41:41;;;;;;;11.83;10.10;;;25.00;69.80;;;;;;4976790;28;20184;-57
2022/07/25 09:44:17;;;;;;;11.40;10.13;;;25.20;68.50;;;;;;4962456;28;20188;-57
2022/07/25 09:46:43;;;;;;;10.97;9.80;;;25.20;66.60;;;;;;5009572;28;20192;-57
2022/07/25 09:49:08;;;;;;;11.43;10.00;;;25.30;65.60;;;;;;4993251;28;20199;-57
2022/07/25 09:51:35;;;;;;;11.83;10.73;;;25.30;66.20;;;;;;4977449;28;20193;-57
2022/07/25 09:54:02;;;;;;;11.20;9.80;;;25.40;66.80;;;;;;4992443;28;20196;-57
2022/07/25 09:56:28;;;;;;;11.03;10.03;;;25.50;64.50;;;;;;4985593;28;20195;-57
2022/07/25 09:58:53;;;;;;;11.17;10.17;;;25.60;62.80;;;;;;4989518;28;20193;-57
2022/07/25 10:01:24;;;;;;;10.43;9.53;;;25.70;64.10;;;;;;4995744;28;20195;-57
2022/07/25 10:04:18;;;;;;;11.00;10.00;;;25.80;63.10;;;;;;4994263;28;20188;-57
2022/07/25 10:06:49;;;;;;;10.77;9.77;;;25.70;64.20;;;;;;4993505;28;20192;-57
2022/07/25 10:09:16;;;;;;;10.87;9.50;;;25.70;65.30;;;;;;4993207;28;20271;-57
2022/07/25 10:12:05;;;;;;;11.97;10.33;;;25.70;65.50;;;;;;4960093;28;20212;-57
2022/07/25 10:14:32;;;;;;;10.70;9.60;;;25.90;66.60;;;;;;4993898;28;20224;-57
2022/07/25 10:16:59;;;;;;;11.20;10.13;;;26.00;64.80;;;;;;4976960;28;20185;-57
2022/07/25 10:19:45;;;;;;;11.23;10.23;;;26.20;64.20;;;;;;4977595;28;20192;-57
2022/07/25 10:22:11;;;;;;;11.43;10.40;;;26.30;62.80;;;;;;4976163;28;20185;-57
2022/07/25 10:24:38;;;;;;;11.07;9.97;;;26.30;63.40;;;;;;5004544;28;20191;-57
2022/07/25 10:27:12;;;;;;;11.40;10.20;;;26.30;64.20;;;;;;4976939;28;20184;-57
2022/07/25 10:29:39;;;;;;;10.73;9.90;;;26.20;64.40;;;;;;4992474;28;20291;-57
2022/07/25 10:32:08;;;;;;;11.07;9.97;;;26.50;62.10;;;;;;4992270;28;20195;-57
2022/07/25 10:34:35;;;;;;;10.40;9.30;;;26.70;61.70;;;;;;4992202;28;20187;-57
2022/07/25 10:37:17;;;;;;;11.63;10.33;;;26.70;60.10;;;;;;4993677;28;20192;-57
2022/07/25 10:39:44;;;;;;;11.17;9.97;;;26.60;62.60;;;;;;4991120;28;20188;-57
2022/07/25 10:42:15;;;;;;;13.80;10.70;;;26.60;65.20;;;;;;5007989;28;20188;-57
2022/07/25 10:44:49;;;;;;;13.43;9.87;;;26.70;62.10;;;;;;4976271;28;20195;-57
2022/07/25 10:47:16;;;;;;;10.90;9.80;;;26.60;62.00;;;;;;4992314;28;20188;-57
2022/07/25 10:49:48;;;;;;;10.33;9.43;;;26.60;61.60;;;;;;4992258;28;20259;-57
2022/07/25 10:52:19;;;;;;;10.47;9.53;;;26.80;61.60;;;;;;5007050;28;20242;-57
2022/07/25 10:54:56;;;;;;;10.90;9.97;;;26.80;64.00;;;;;;4976098;28;20192;-57
2022/07/25 10:57:22;;;;;;;10.50;9.63;;;26.70;63.30;;;;;;4993618;28;20188;-57
2022/07/25 10:59:48;;;;;;;10.80;9.80;;;26.90;65.00;;;;;;4983568;28;20188;-57
2022/07/25 11:02:17;;;;;;;11.10;10.10;;;27.20;62.50;;;;;;4994391;28;20191;-56
2022/07/25 11:04:44;;;;;;;11.53;10.43;;;27.20;61.40;;;;;;4993885;28;20227;-57
2022/07/25 11:07:12;;;;;;;11.17;8.97;;;27.20;60.10;;;;;;4993568;28;20264;-57
2022/07/25 11:09:39;;;;;;;10.80;9.83;;;27.20;58.30;;;;;;4991674;28;20212;-57
2022/07/25 11:12:06;;;;;;;11.67;10.60;;;27.20;60.30;;;;;;4994285;28;20326;-58
2022/07/25 11:14:40;;;;;;;10.80;9.67;;;27.40;59.80;;;;;;4993405;28;20235;-60
2022/07/25 11:17:23;;;;;;;10.63;9.63;;;27.50;60.50;;;;;;4994377;28;20252;-61
2022/07/25 11:20:00;;;;;;;10.63;9.73;;;27.50;63.30;;;;;;4996602;28;20196;-59
2022/07/25 11:22:26;;;;;;;10.67;9.67;;;27.70;60.20;;;;;;5015287;28;20274;-59
2022/07/25 11:24:53;;;;;;;11.07;9.97;;;27.70;61.60;;;;;;4994070;28;20192;-59
2022/07/25 11:27:27;;;;;;;11.30;10.20;;;27.70;62.80;;;;;;4994481;28;20188;-60
2022/07/25 11:30:04;;;;;;;10.80;9.87;;;27.80;62.70;;;;;;4976837;28;20222;-60
2022/07/25 11:32:42;;;;;;;10.13;9.20;;;27.90;63.30;;;;;;5007517;28;20254;-60
2022/07/25 11:35:11;;;;;;;9.63;8.90;;;28.20;62.90;;;;;;5000837;28;20183;-57
2022/07/25 11:37:40;;;;;;;10.23;9.30;;;28.50;59.00;;;;;;5008807;28;20180;-59
2022/07/25 11:40:06;;;;;;;10.30;9.40;;;28.70;57.70;;;;;;4994008;28;20192;-59
2022/07/25 11:42:43;;;;;;;10.50;9.50;;;28.50;58.50;;;;;;4977676;28;20195;-59
2022/07/25 11:45:15;;;;;;;11.07;9.97;;;28.60;57.00;;;;;;4976711;28;20211;-59
2022/07/25 11:47:41;;;;;;;10.30;9.17;;;28.50;59.40;;;;;;5000353;28;20184;-60
2022/07/25 11:50:09;;;;;;;10.20;9.30;;;28.50;61.80;;;;;;4985194;28;20226;-60
2022/07/25 11:52:37;;;;;;;11.13;10.20;;;28.50;61.90;;;;;;4977669;28;20196;-60
2022/07/25 11:55:12;;;;;;;10.57;9.67;;;28.40;61.70;;;;;;4976130;28;20185;-60
2022/07/25 11:57:40;;;;;;;10.53;9.63;;;28.40;64.20;;;;;;4997046;28;20279;-60
2022/07/25 12:00:18;;;;;;;10.77;9.87;;;28.60;58.60;;;;;;4996388;28;20202;-60
2022/07/25 12:02:45;;;;;;;11.17;10.27;;;28.70;61.30;;;;;;5002436;28;20268;-60
2022/07/25 12:05:13;;;;;;;11.37;10.17;;;29.00;62.70;;;;;;4993620;28;20191;-60
2022/07/25 12:07:38;;;;;;;11.37;10.33;;;29.20;63.20;;;;;;5003048;28;20196;-60
2022/07/25 12:10:08;;;;;;;11.27;9.37;;;29.50;58.20;;;;;;4989135;28;20215;-60
2022/07/25 12:12:44;;;;;;;10.03;9.10;;;29.70;56.00;;;;;;4997221;28;20242;-59
2022/07/25 12:15:11;;;;;;;9.90;8.90;;;30.20;52.70;;;;;;5015169;28;20226;-59
2022/07/25 12:17:37;;;;;;;10.90;9.73;;;30.40;55.80;;;;;;4997542;28;20188;-59
2022/07/25 12:20:04;;;;;;;10.10;9.10;;;30.70;55.10;;;;;;4980942;28;20197;-59
2022/07/25 12:22:29;;;;;;;10.60;9.57;;;31.30;55.80;;;;;;4969627;28;20200;-60
2022/07/25 12:24:55;;;;;;;9.00;8.23;;;32.10;53.40;;;;;;4994594;28;20200;-61
2022/07/25 12:27:21;;;;;;;9.97;8.97;;;32.60;49.60;;;;;;5013345;28;20201;-61
2022/07/25 12:29:46;;;;;;;9.37;8.43;;;33.20;48.90;;;;;;4981968;28;20311;-60
2022/07/25 12:32:12;;;;;;;9.73;8.67;;;33.70;44.70;;;;;;4986775;28;20216;-60
2022/07/25 12:34:37;;;;;;;9.43;8.70;;;34.20;45.00;;;;;;5013137;28;20243;-60